Time;durP1;ratioP1;P1;durP2;ratioP2;P2;SDS_P1;SDS_P2;PMS_P1;PMS_P2;Temp;Humidity;BMP_temperature;BMP_pressure;BME280_temperature;BME280_humidity;BME280_pressure;Samples;Min_cycle;Max_cycle;Signal;HPM_P1;HPM_P2
2020/12/29 00:02:22;;;;;;;1.48;1.38;;;9.20;99.90;;;;;;5035178;28;20222;-79
2020/12/29 00:04:49;;;;;;;1.60;1.25;;;9.20;99.90;;;;;;5035252;28;20200;-79
2020/12/29 00:07:15;;;;;;;1.67;1.58;;;9.20;99.90;;;;;;5035198;28;20713;-79
2020/12/29 00:09:41;;;;;;;1.75;1.50;;;9.30;99.90;;;;;;5034989;28;20658;-79
2020/12/29 00:12:08;;;;;;;2.60;2.05;;;9.30;99.90;;;;;;5035073;28;20792;-79
2020/12/29 00:14:34;;;;;;;1.73;1.58;;;9.30;99.90;;;;;;5035065;28;20639;-79
2020/12/29 00:17:00;;;;;;;1.30;1.20;;;9.30;99.90;;;;;;5034901;28;20195;-79
2020/12/29 00:19:28;;;;;;;1.83;1.65;;;9.30;99.90;;;;;;5034820;28;20644;-79
2020/12/29 00:21:54;;;;;;;4.10;2.42;;;9.30;99.90;;;;;;5034108;28;20206;-79
2020/12/29 00:24:21;;;;;;;2.00;1.80;;;9.30;99.90;;;;;;5034803;28;20195;-79
2020/12/29 00:26:47;;;;;;;2.20;1.80;;;9.30;99.90;;;;;;5034820;28;20195;-79
2020/12/29 00:29:13;;;;;;;2.60;1.55;;;9.30;99.90;;;;;;5034707;28;20200;-79
2020/12/29 00:31:40;;;;;;;1.60;1.50;;;9.30;99.90;;;;;;5034603;28;20203;-79
2020/12/29 00:34:06;;;;;;;1.73;1.63;;;9.30;99.90;;;;;;5034504;28;20583;-79
2020/12/29 00:36:33;;;;;;;2.10;1.80;;;9.30;99.90;;;;;;5034521;28;20199;-79
2020/12/29 00:38:59;;;;;;;2.17;2.00;;;9.30;99.90;;;;;;5034431;28;20224;-79
2020/12/29 00:41:26;;;;;;;1.65;1.55;;;9.30;99.90;;;;;;5034326;28;20207;-79
2020/12/29 00:43:52;;;;;;;2.03;1.83;;;9.30;99.90;;;;;;5034498;28;20195;-79
2020/12/29 00:46:20;;;;;;;1.85;1.65;;;9.30;99.90;;;;;;5034538;28;20257;-79
2020/12/29 00:48:47;;;;;;;2.33;1.83;;;9.30;99.90;;;;;;5034129;28;20206;-79
2020/12/29 00:51:15;;;;;;;2.05;1.52;;;9.30;99.90;;;;;;5034220;28;20199;-79
2020/12/29 00:53:42;;;;;;;2.10;2.00;;;9.40;99.90;;;;;;5034172;28;20269;-79
2020/12/29 00:56:10;;;;;;;1.85;1.60;;;9.40;99.90;;;;;;5034114;28;20206;-79
2020/12/29 00:58:36;;;;;;;2.40;2.20;;;9.40;99.90;;;;;;5034114;28;20286;-79
2020/12/29 01:01:03;;;;;;;2.72;1.90;;;9.50;99.90;;;;;;5033981;28;20196;-79
2020/12/29 01:03:29;;;;;;;2.95;1.73;;;9.40;99.90;;;;;;5033874;28;20207;-79
2020/12/29 01:05:55;;;;;;;1.60;1.50;;;9.50;99.90;;;;;;5034052;28;20196;-79
2020/12/29 01:08:22;;;;;;;2.25;1.80;;;9.50;99.90;;;;;;5033938;28;20204;-79
2020/12/29 01:10:52;;;;;;;1.70;1.60;;;9.50;99.90;;;;;;5033816;28;20195;-79
2020/12/29 01:13:18;;;;;;;2.25;1.90;;;9.40;99.90;;;;;;5034109;28;20195;-79
2020/12/29 01:15:45;;;;;;;3.40;1.80;;;9.40;99.90;;;;;;5033791;28;20249;-79
2020/12/29 01:18:11;;;;;;;2.40;1.83;;;9.30;99.90;;;;;;5033752;28;20666;-79
2020/12/29 01:20:37;;;;;;;4.00;2.53;;;9.20;99.90;;;;;;5033539;28;20243;-79
2020/12/29 01:23:04;;;;;;;2.35;2.15;;;9.20;99.90;;;;;;5033367;28;20215;-79
2020/12/29 01:25:30;;;;;;;2.42;2.20;;;9.20;99.90;;;;;;5033733;28;20206;-79
2020/12/29 01:27:57;;;;;;;2.38;2.03;;;9.20;99.90;;;;;;5033557;28;20204;-79
2020/12/29 01:30:23;;;;;;;2.30;2.03;;;9.10;99.90;;;;;;5033763;28;20200;-79
2020/12/29 01:32:50;;;;;;;2.15;1.90;;;9.00;99.90;;;;;;5032569;28;20630;-79
2020/12/29 01:35:16;;;;;;;2.55;2.35;;;8.80;99.90;;;;;;5033432;28;20200;-79
2020/12/29 01:37:43;;;;;;;3.17;2.40;;;8.60;99.90;;;;;;5033226;28;20250;-78
2020/12/29 01:40:11;;;;;;;2.10;1.90;;;8.50;99.90;;;;;;5033393;28;20690;-79
2020/12/29 01:42:38;;;;;;;1.90;1.80;;;8.40;99.90;;;;;;5032943;28;20218;-79
2020/12/29 01:45:08;;;;;;;2.90;2.70;;;8.40;99.90;;;;;;5033095;28;20666;-79
2020/12/29 01:47:37;;;;;;;2.85;2.03;;;8.30;99.90;;;;;;5033261;28;20202;-79
2020/12/29 01:50:11;;;;;;;2.97;2.03;;;8.20;99.90;;;;;;5033248;28;20330;-79
2020/12/29 01:52:38;;;;;;;2.33;2.13;;;8.20;99.90;;;;;;5033211;28;20581;-79
2020/12/29 01:55:05;;;;;;;2.88;2.60;;;8.10;99.90;;;;;;5033199;28;20258;-79
2020/12/29 01:57:37;;;;;;;2.55;2.35;;;7.90;99.90;;;;;;5032980;28;20211;-79
2020/12/29 02:00:07;;;;;;;4.20;2.38;;;7.90;99.90;;;;;;5032678;28;20581;-79
2020/12/29 02:02:34;;;;;;;2.90;2.60;;;8.00;99.90;;;;;;5033168;28;20294;-79
2020/12/29 02:05:00;;;;;;;2.80;2.20;;;8.00;99.90;;;;;;5033064;28;20195;-79
2020/12/29 02:07:27;;;;;;;3.13;2.83;;;8.00;99.90;;;;;;5033105;28;20214;-79
2020/12/29 02:09:54;;;;;;;3.03;2.60;;;7.90;99.90;;;;;;5033218;28;20200;-79
2020/12/29 02:12:21;;;;;;;2.92;2.63;;;7.90;99.90;;;;;;5033111;28;20199;-79
2020/12/29 02:14:47;;;;;;;2.65;2.45;;;7.80;99.90;;;;;;5033228;28;20203;-79
2020/12/29 02:17:14;;;;;;;3.13;2.70;;;7.90;99.90;;;;;;5032915;28;20195;-79
2020/12/29 02:19:40;;;;;;;2.60;2.40;;;7.90;99.90;;;;;;5033005;28;20582;-78
2020/12/29 02:22:07;;;;;;;3.00;2.70;;;7.80;99.90;;;;;;5032989;28;20223;-78
2020/12/29 02:24:34;;;;;;;2.58;2.38;;;7.80;99.90;;;;;;5033074;28;20203;-79
2020/12/29 02:27:03;;;;;;;4.28;2.85;;;7.90;99.90;;;;;;5032822;28;20207;-79
2020/12/29 02:29:32;;;;;;;2.92;2.65;;;7.80;99.90;;;;;;5033010;28;20206;-79
2020/12/29 02:31:58;;;;;;;5.22;2.50;;;7.80;99.90;;;;;;5032765;28;20210;-79
2020/12/29 02:34:25;;;;;;;2.90;2.70;;;7.80;99.90;;;;;;5032988;28;20196;-79
2020/12/29 02:36:51;;;;;;;3.90;3.25;;;7.70;99.90;;;;;;5032804;28;20199;-78
2020/12/29 02:39:18;;;;;;;2.60;2.40;;;7.70;99.90;;;;;;5032987;28;20231;-79
2020/12/29 02:41:45;;;;;;;4.35;3.45;;;7.70;99.90;;;;;;5032774;28;20639;-79
2020/12/29 02:44:19;;;;;;;2.90;2.70;;;7.70;99.90;;;;;;5033933;28;20196;-78
2020/12/29 02:46:47;;;;;;;4.20;3.33;;;7.70;99.90;;;;;;5036692;28;20203;-79
2020/12/29 02:49:14;;;;;;;6.50;2.65;;;7.70;99.90;;;;;;5036483;28;20658;-79
2020/12/29 02:51:40;;;;;;;4.47;3.20;;;7.60;99.90;;;;;;5036462;28;20195;-79
2020/12/29 02:54:06;;;;;;;5.05;3.25;;;7.50;99.90;;;;;;5036644;28;20199;-78
2020/12/29 02:56:32;;;;;;;6.13;3.40;;;7.40;99.90;;;;;;5036264;28;20192;-79
2020/12/29 02:58:59;;;;;;;5.57;3.47;;;7.40;99.90;;;;;;5036242;28;20219;-79
2020/12/29 03:01:27;;;;;;;4.57;3.80;;;7.40;99.90;;;;;;5036740;28;20532;-79
2020/12/29 03:03:54;;;;;;;3.72;3.42;;;7.40;99.90;;;;;;5035839;28;20199;-78
2020/12/29 03:06:20;;;;;;;3.92;3.53;;;7.40;99.90;;;;;;5036364;28;20234;-79
2020/12/29 03:08:46;;;;;;;3.40;3.10;;;7.40;99.90;;;;;;5036323;28;20529;-78
2020/12/29 03:11:12;;;;;;;3.40;3.10;;;7.40;99.90;;;;;;5036245;28;20647;-79
2020/12/29 03:13:39;;;;;;;3.88;2.95;;;7.40;99.90;;;;;;5036032;28;20202;-79
2020/12/29 03:16:06;;;;;;;3.38;3.08;;;7.30;99.90;;;;;;5036186;28;20203;-79
2020/12/29 03:18:32;;;;;;;4.00;3.60;;;7.30;99.90;;;;;;5036150;28;20223;-78
2020/12/29 03:20:58;;;;;;;2.60;2.40;;;7.20;99.90;;;;;;5035810;28;20230;-79
2020/12/29 03:23:24;;;;;;;7.38;3.78;;;7.20;99.90;;;;;;5035937;28;20216;-78
2020/12/29 03:25:50;;;;;;;3.45;3.15;;;7.10;99.90;;;;;;5035994;28;20654;-79
2020/12/29 03:28:16;;;;;;;3.40;3.03;;;7.10;99.90;;;;;;5035856;28;20226;-78
2020/12/29 03:30:43;;;;;;;4.40;3.95;;;7.10;99.90;;;;;;5035402;28;20218;-79
2020/12/29 03:33:10;;;;;;;3.58;3.25;;;7.20;99.90;;;;;;5035278;28;20235;-79
2020/12/29 03:35:36;;;;;;;4.60;3.70;;;7.30;99.90;;;;;;5035785;28;20563;-79
2020/12/29 03:38:02;;;;;;;4.47;4.07;;;7.40;99.90;;;;;;5035651;28;20196;-79
2020/12/29 03:40:29;;;;;;;7.55;4.88;;;7.50;99.90;;;;;;5035683;28;20243;-79
2020/12/29 03:42:55;;;;;;;5.30;4.65;;;7.40;99.90;;;;;;5035222;28;20655;-79
2020/12/29 03:45:21;;;;;;;5.30;4.25;;;7.50;99.90;;;;;;5034979;28;20199;-78
2020/12/29 03:47:47;;;;;;;8.38;5.55;;;7.50;99.90;;;;;;5035400;28;20725;-79
2020/12/29 03:50:14;;;;;;;4.93;3.80;;;7.50;99.90;;;;;;5035420;28;20646;-79
2020/12/29 03:52:41;;;;;;;6.07;5.38;;;7.40;99.90;;;;;;5035264;28;20215;-79
2020/12/29 03:55:07;;;;;;;7.05;4.55;;;7.40;99.90;;;;;;5035167;28;20199;-79
2020/12/29 03:57:33;;;;;;;5.88;4.50;;;7.30;99.90;;;;;;5034443;28;20192;-78
2020/12/29 03:59:59;;;;;;;4.50;4.07;;;7.30;99.90;;;;;;5035248;28;20273;-79
2020/12/29 04:02:25;;;;;;;5.53;3.85;;;7.20;99.90;;;;;;5035130;28;20254;-79
2020/12/29 04:04:52;;;;;;;5.05;4.13;;;7.20;99.90;;;;;;5035260;28;20257;-79
2020/12/29 04:07:19;;;;;;;4.55;3.80;;;7.10;99.90;;;;;;5035140;28;20526;-78
2020/12/29 04:09:45;;;;;;;6.38;4.05;;;7.10;99.90;;;;;;5035112;28;20195;-79
2020/12/29 04:12:12;;;;;;;4.60;4.20;;;6.90;99.90;;;;;;5035104;28;20204;-79
2020/12/29 04:14:38;;;;;;;3.80;3.50;;;7.10;99.90;;;;;;5035017;28;20202;-79
2020/12/29 04:17:04;;;;;;;5.18;4.35;;;7.10;99.90;;;;;;5035041;28;20195;-79
2020/12/29 04:19:30;;;;;;;3.72;3.42;;;7.10;99.90;;;;;;5034792;28;20219;-79
2020/12/29 04:21:57;;;;;;;5.20;4.03;;;7.10;99.90;;;;;;5034794;28;20258;-79
2020/12/29 04:24:24;;;;;;;6.03;3.65;;;7.20;99.90;;;;;;5034845;28;20208;-79
2020/12/29 04:26:50;;;;;;;3.90;3.50;;;7.20;99.90;;;;;;5034641;28;20647;-79
2020/12/29 04:29:16;;;;;;;5.43;3.45;;;7.20;99.90;;;;;;5034928;28;20192;-78
2020/12/29 04:31:42;;;;;;;4.75;4.20;;;7.20;99.90;;;;;;5034677;28;20200;-79
2020/12/29 04:34:09;;;;;;;4.05;3.63;;;7.20;99.90;;;;;;5034451;28;20227;-79
2020/12/29 04:36:35;;;;;;;4.38;3.95;;;7.20;99.90;;;;;;5034570;28;20211;-79
2020/12/29 04:39:01;;;;;;;4.93;3.78;;;7.10;99.90;;;;;;5034364;28;20195;-79
2020/12/29 04:41:29;;;;;;;6.05;3.70;;;7.10;99.90;;;;;;5034566;28;20199;-79
2020/12/29 04:43:55;;;;;;;8.90;4.57;;;7.10;99.90;;;;;;5034087;28;20678;-79
2020/12/29 04:46:22;;;;;;;4.30;3.90;;;7.10;99.90;;;;;;5034234;28;20192;-79
2020/12/29 04:48:48;;;;;;;4.13;3.50;;;7.20;99.90;;;;;;5034193;28;20222;-79
2020/12/29 04:51:16;;;;;;;4.68;4.03;;;7.20;99.90;;;;;;5034236;28;20199;-78
2020/12/29 04:53:58;;;;;;;4.43;4.03;;;7.20;99.90;;;;;;5034122;28;20691;-79
2020/12/29 04:56:30;;;;;;;6.15;3.83;;;7.10;99.90;;;;;;5033989;28;20204;-78
2020/12/29 04:58:58;;;;;;;3.00;2.72;;;7.20;99.90;;;;;;5033963;28;20207;-79
2020/12/29 05:01:28;;;;;;;4.18;3.78;;;7.20;99.90;;;;;;5034089;28;20207;-79
2020/12/29 05:03:54;;;;;;;3.17;2.95;;;7.40;99.90;;;;;;5034017;28;20206;-78
2020/12/29 05:06:22;;;;;;;3.85;3.40;;;7.50;99.90;;;;;;5034043;28;20206;-78
2020/12/29 05:08:49;;;;;;;3.50;2.85;;;7.70;99.90;;;;;;5033938;28;20650;-79
2020/12/29 05:11:17;;;;;;;3.00;2.75;;;7.90;99.90;;;;;;5033882;28;20210;-78
2020/12/29 05:13:43;;;;;;;4.07;3.67;;;7.90;99.90;;;;;;5034009;28;20222;-79
2020/12/29 05:16:10;;;;;;;6.63;3.33;;;7.70;99.90;;;;;;5033769;28;20790;-79
2020/12/29 05:18:37;;;;;;;3.72;3.22;;;7.70;99.90;;;;;;5033565;28;20591;-79
2020/12/29 05:21:03;;;;;;;3.30;3.00;;;7.60;99.90;;;;;;5033747;28;20223;-79
2020/12/29 05:23:30;;;;;;;3.70;3.40;;;7.70;99.90;;;;;;5033752;28;20215;-78
2020/12/29 05:25:56;;;;;;;11.38;3.75;;;7.70;99.90;;;;;;5033644;28;20253;-79
2020/12/29 05:28:25;;;;;;;4.07;3.65;;;7.70;99.90;;;;;;5033773;28;20198;-78
2020/12/29 05:30:55;;;;;;;5.20;3.75;;;7.80;99.90;;;;;;5033432;28;20206;-79
2020/12/29 05:33:22;;;;;;;3.20;2.42;;;7.90;99.90;;;;;;5033530;28;20683;-79
2020/12/29 05:35:51;;;;;;;3.30;3.00;;;8.10;99.90;;;;;;5033435;28;20286;-79
2020/12/29 05:38:17;;;;;;;3.92;3.58;;;8.20;99.90;;;;;;5033354;28;20262;-79
2020/12/29 05:40:45;;;;;;;6.45;2.70;;;8.30;99.90;;;;;;5033343;28;20254;-79
2020/12/29 05:43:11;;;;;;;3.95;3.55;;;8.20;99.90;;;;;;5033338;28;20199;-79
2020/12/29 05:45:38;;;;;;;3.05;2.83;;;8.10;99.90;;;;;;5033285;28;20191;-79
2020/12/29 05:48:05;;;;;;;5.28;3.75;;;8.00;99.90;;;;;;5033231;28;20610;-78
2020/12/29 05:50:32;;;;;;;4.35;3.15;;;8.00;99.90;;;;;;5033357;28;20571;-79
2020/12/29 05:53:07;;;;;;;4.05;3.40;;;7.90;99.90;;;;;;5033221;28;20227;-79
2020/12/29 05:55:33;;;;;;;3.65;2.95;;;7.70;99.90;;;;;;5033164;28;20191;-79
2020/12/29 05:58:05;;;;;;;4.00;2.97;;;7.60;99.90;;;;;;5033219;28;20551;-78
2020/12/29 06:00:32;;;;;;;3.42;2.97;;;7.70;99.90;;;;;;5033219;28;20254;-78
2020/12/29 06:03:00;;;;;;;2.50;2.30;;;7.70;99.90;;;;;;5033188;28;20203;-79
2020/12/29 06:05:27;;;;;;;3.72;2.67;;;7.80;99.90;;;;;;5033254;28;20203;-79
2020/12/29 06:07:56;;;;;;;4.22;2.45;;;7.90;99.90;;;;;;5033104;28;20199;-78
2020/12/29 06:10:23;;;;;;;3.38;3.08;;;7.80;99.90;;;;;;5033295;28;20200;-79
2020/12/29 06:12:54;;;;;;;2.78;2.58;;;7.80;99.90;;;;;;5033233;28;20199;-79
2020/12/29 06:15:26;;;;;;;3.42;3.03;;;7.80;99.90;;;;;;5033369;28;20206;-79
2020/12/29 06:17:55;;;;;;;2.80;2.60;;;7.90;99.90;;;;;;5032874;28;20195;-79
2020/12/29 06:20:21;;;;;;;3.90;2.97;;;8.00;99.90;;;;;;5036261;28;20227;-79
2020/12/29 06:22:51;;;;;;;3.60;3.30;;;8.00;99.90;;;;;;5037048;28;20278;-79
2020/12/29 06:25:20;;;;;;;4.30;3.58;;;8.10;99.90;;;;;;5037183;28;20199;-79
2020/12/29 06:27:52;;;;;;;6.03;2.83;;;8.10;99.90;;;;;;5036775;28;20255;-79
2020/12/29 06:30:19;;;;;;;6.05;2.90;;;8.20;99.90;;;;;;5036981;28;20226;-79
2020/12/29 06:32:48;;;;;;;3.63;2.78;;;8.20;99.90;;;;;;5036496;28;20706;-79
2020/12/29 06:35:15;;;;;;;4.00;2.50;;;8.30;99.90;;;;;;5036908;28;20208;-79
2020/12/29 06:37:46;;;;;;;2.97;2.75;;;8.10;99.90;;;;;;5036681;28;20196;-79
2020/12/29 06:40:14;;;;;;;4.53;3.53;;;8.00;99.90;;;;;;5036683;28;20267;-78
2020/12/29 06:42:43;;;;;;;5.05;3.60;;;8.10;99.90;;;;;;5036631;28;20202;-79
2020/12/29 06:45:10;;;;;;;4.40;2.90;;;8.10;99.90;;;;;;5036577;28;20202;-78
2020/12/29 06:47:38;;;;;;;4.03;3.30;;;8.10;99.90;;;;;;5036617;28;20202;-79
2020/12/29 06:50:24;;;;;;;2.97;2.70;;;8.10;99.90;;;;;;5036502;28;20199;-78
2020/12/29 06:52:54;;;;;;;4.72;2.92;;;8.20;99.90;;;;;;5036511;28;20223;-79
2020/12/29 06:55:20;;;;;;;2.70;2.50;;;8.20;99.90;;;;;;5036452;28;20199;-79
2020/12/29 06:57:49;;;;;;;4.18;2.80;;;8.20;99.90;;;;;;5036281;28;20199;-79
2020/12/29 07:00:20;;;;;;;3.35;3.05;;;8.20;99.90;;;;;;5036224;28;20277;-79
2020/12/29 07:02:47;;;;;;;3.92;3.13;;;8.30;99.90;;;;;;5035859;28;20199;-79
2020/12/29 07:05:16;;;;;;;5.28;3.35;;;8.20;99.90;;;;;;5036325;28;20567;-79
2020/12/29 07:07:46;;;;;;;2.92;2.70;;;8.20;99.90;;;;;;5036112;28;20203;-79
2020/12/29 07:10:14;;;;;;;6.28;2.92;;;8.20;99.90;;;;;;5036210;28;20246;-79
2020/12/29 07:12:43;;;;;;;3.20;2.78;;;8.20;99.90;;;;;;5036205;28;20718;-79
2020/12/29 07:15:14;;;;;;;4.53;3.33;;;8.20;99.90;;;;;;5036023;28;20192;-79
2020/12/29 07:17:40;;;;;;;4.70;3.42;;;8.10;99.90;;;;;;5035888;28;20227;-78
2020/12/29 07:20:14;;;;;;;3.75;3.33;;;8.10;99.90;;;;;;5036102;28;20223;-79
2020/12/29 07:22:40;;;;;;;3.95;2.70;;;8.10;99.90;;;;;;5035807;28;20212;-79
2020/12/29 07:25:07;;;;;;;4.72;3.35;;;8.00;99.90;;;;;;5036008;28;20196;-79
2020/12/29 07:27:36;;;;;;;5.47;3.40;;;8.00;99.90;;;;;;5035774;28;20282;-78
2020/12/29 07:30:04;;;;;;;3.50;3.15;;;8.00;99.90;;;;;;5035096;28;20205;-78
2020/12/29 07:32:31;;;;;;;3.80;3.10;;;7.90;99.90;;;;;;5034788;28;20714;-78
2020/12/29 07:34:59;;;;;;;3.67;3.38;;;8.00;99.90;;;;;;5034714;28;20265;-78
2020/12/29 07:37:28;;;;;;;5.38;3.17;;;8.00;99.90;;;;;;5035127;28;20195;-78
2020/12/29 07:39:54;;;;;;;4.65;3.20;;;8.10;99.90;;;;;;5035554;28;20583;-78
2020/12/29 07:42:20;;;;;;;3.78;3.05;;;8.10;99.90;;;;;;5035464;28;20199;-78
2020/12/29 07:44:47;;;;;;;4.63;4.22;;;8.10;99.90;;;;;;5035515;28;20222;-78
2020/12/29 07:47:13;;;;;;;5.40;3.55;;;8.20;99.90;;;;;;5035470;28;20199;-78
2020/12/29 07:49:40;;;;;;;4.10;3.70;;;8.20;99.90;;;;;;5035474;28;20203;-78
2020/12/29 07:52:06;;;;;;;4.57;4.03;;;8.20;99.90;;;;;;5035419;28;20219;-78
2020/12/29 07:54:33;;;;;;;5.13;4.57;;;8.30;99.90;;;;;;5035410;28;20262;-78
2020/12/29 07:57:00;;;;;;;3.78;3.38;;;8.30;99.90;;;;;;5035345;28;20286;-78
2020/12/29 07:59:26;;;;;;;5.90;4.53;;;8.40;99.90;;;;;;5035061;28;20219;-78
2020/12/29 08:01:55;;;;;;;9.63;4.22;;;8.50;99.90;;;;;;5035353;28;20532;-78
2020/12/29 08:04:26;;;;;;;4.55;3.95;;;8.50;99.90;;;;;;5035251;28;20294;-78
2020/12/29 08:06:53;;;;;;;7.13;4.75;;;8.50;99.90;;;;;;5035213;28;20221;-79
2020/12/29 08:09:19;;;;;;;7.10;5.25;;;8.50;99.90;;;;;;5035057;28;20196;-78
2020/12/29 08:11:46;;;;;;;6.38;4.70;;;8.50;99.90;;;;;;5035006;28;20732;-78
2020/12/29 08:14:12;;;;;;;5.30;4.80;;;8.50;99.90;;;;;;5034958;28;20678;-78
2020/12/29 08:16:38;;;;;;;6.88;4.15;;;8.50;99.90;;;;;;5035024;28;20200;-78
2020/12/29 08:19:09;;;;;;;8.35;5.45;;;8.50;99.90;;;;;;5034792;28;20253;-78
2020/12/29 08:21:35;;;;;;;7.20;5.28;;;8.40;99.90;;;;;;5034729;28;20224;-78
2020/12/29 08:24:03;;;;;;;6.45;5.40;;;8.40;99.90;;;;;;5034752;28;20206;-78
2020/12/29 08:26:29;;;;;;;7.90;5.45;;;8.40;99.90;;;;;;5034718;28;20219;-78
2020/12/29 08:28:56;;;;;;;6.40;4.90;;;8.40;99.90;;;;;;5034661;28;20218;-78
2020/12/29 08:31:23;;;;;;;5.53;5.03;;;8.40;99.90;;;;;;5034878;28;20231;-78
2020/12/29 08:33:52;;;;;;;6.07;4.75;;;8.40;99.90;;;;;;5034408;28;20702;-78
2020/12/29 08:36:23;;;;;;;5.15;4.65;;;8.50;99.90;;;;;;5034530;28;20207;-78
2020/12/29 08:39:19;;;;;;;7.40;5.05;;;8.40;99.90;;;;;;5034279;28;20203;-78
2020/12/29 08:41:53;;;;;;;6.45;4.80;;;8.40;99.90;;;;;;5034072;28;20528;-78
2020/12/29 08:44:20;;;;;;;6.90;4.70;;;8.50;99.90;;;;;;5033488;28;20697;-78
2020/12/29 08:46:47;;;;;;;4.88;4.47;;;8.40;99.90;;;;;;5034363;28;20199;-78
2020/12/29 08:49:13;;;;;;;8.25;4.65;;;8.40;99.90;;;;;;5034109;28;20247;-78
2020/12/29 08:51:41;;;;;;;7.57;5.38;;;8.40;99.90;;;;;;5029449;28;20216;-77
2020/12/29 08:54:10;;;;;;;9.30;6.07;;;8.40;99.90;;;;;;5031314;28;20192;-77
2020/12/29 08:56:37;;;;;;;8.25;5.13;;;8.30;99.90;;;;;;5032586;28;20303;-77
2020/12/29 08:59:11;;;;;;;6.95;5.20;;;8.30;99.90;;;;;;5033447;28;20647;-78
2020/12/29 09:01:40;;;;;;;6.68;5.38;;;8.20;99.90;;;;;;5028662;28;20203;-79
2020/12/29 09:04:29;;;;;;;5.93;5.32;;;8.20;99.90;;;;;;5033649;28;20297;-80
2020/12/29 09:07:06;;;;;;;6.20;5.00;;;8.20;99.90;;;;;;5033933;28;20203;-82
2020/12/29 09:09:34;;;;;;;5.80;5.10;;;8.10;99.90;;;;;;5033741;28;20199;-81
2020/12/29 09:12:17;;;;;;;7.70;5.43;;;8.10;99.90;;;;;;5033772;28;20204;-80
2020/12/29 09:14:54;;;;;;;6.00;4.88;;;8.10;99.90;;;;;;5031188;28;20199;-79
2020/12/29 09:17:21;;;;;;;4.15;3.75;;;8.20;99.90;;;;;;5033425;28;20199;-78
2020/12/29 09:20:10;;;;;;;7.03;5.18;;;8.20;99.90;;;;;;5033334;28;20223;-78
2020/12/29 09:22:51;;;;;;;10.60;5.75;;;8.30;99.90;;;;;;5033373;28;20219;-78
2020/12/29 09:25:26;;;;;;;7.13;4.97;;;8.20;99.90;;;;;;5033498;28;20202;-77
2020/12/29 09:28:11;;;;;;;5.35;4.70;;;8.10;99.90;;;;;;5031652;28;20203;-79
2020/12/29 09:30:38;;;;;;;4.80;4.00;;;8.10;99.90;;;;;;5017130;28;20200;-78
2020/12/29 09:33:04;;;;;;;5.65;5.15;;;7.90;99.90;;;;;;5032910;28;20234;-78
2020/12/29 09:35:31;;;;;;;6.15;5.15;;;7.80;99.90;;;;;;5033219;28;20202;-81
2020/12/29 09:37:59;;;;;;;5.72;5.10;;;7.80;99.90;;;;;;5033360;28;20570;-80
2020/12/29 09:40:26;;;;;;;6.15;4.80;;;8.00;99.90;;;;;;5032108;28;21060;-80
2020/12/29 09:42:53;;;;;;;5.97;4.50;;;8.20;99.90;;;;;;5020597;28;20200;-79
2020/12/29 09:45:21;;;;;;;6.90;4.97;;;8.20;99.90;;;;;;5020172;28;20714;-80
2020/12/29 09:47:47;;;;;;;7.43;5.57;;;8.30;99.90;;;;;;5027022;28;20277;-80
2020/12/29 09:50:15;;;;;;;6.10;5.25;;;8.40;99.90;;;;;;5033024;28;20206;-82
2020/12/29 09:52:41;;;;;;;9.02;5.15;;;8.40;99.90;;;;;;5033340;28;20253;-82
2020/12/29 09:55:08;;;;;;;5.47;4.97;;;8.30;99.90;;;;;;5032710;28;20207;-82
2020/12/29 09:57:34;;;;;;;5.40;4.90;;;8.40;99.90;;;;;;5033204;28;20199;-82
2020/12/29 10:00:01;;;;;;;5.40;4.55;;;8.40;99.90;;;;;;5033315;28;20230;-79
2020/12/29 10:02:28;;;;;;;5.72;4.82;;;8.60;99.90;;;;;;5033302;28;20195;-79
2020/12/29 10:04:54;;;;;;;7.45;4.78;;;8.30;99.90;;;;;;5033239;28;20199;-80
2020/12/29 10:07:20;;;;;;;6.43;5.07;;;8.30;99.90;;;;;;5031973;28;20253;-79
2020/12/29 10:09:47;;;;;;;10.65;6.07;;;8.30;99.90;;;;;;5033081;28;20655;-78
2020/12/29 10:12:14;;;;;;;6.57;4.35;;;8.30;99.90;;;;;;5033189;28;20259;-79
2020/12/29 10:14:40;;;;;;;5.55;4.60;;;8.20;99.90;;;;;;5033079;28;20290;-79
2020/12/29 10:17:06;;;;;;;7.00;5.45;;;8.10;99.90;;;;;;5032949;28;20195;-81
2020/12/29 10:19:33;;;;;;;5.13;4.50;;;8.10;99.90;;;;;;5032865;28;20191;-82
2020/12/29 10:22:00;;;;;;;6.07;5.47;;;8.10;99.90;;;;;;5032766;28;20220;-82
2020/12/29 10:24:29;;;;;;;7.35;5.72;;;8.10;99.90;;;;;;5033060;28;20199;-79
2020/12/29 10:26:56;;;;;;;5.93;4.85;;;8.10;99.90;;;;;;5029867;28;20276;-84
2020/12/29 10:29:22;;;;;;;7.25;5.53;;;8.20;99.90;;;;;;5021332;28;20680;-80
2020/12/29 10:31:48;;;;;;;10.38;5.20;;;8.30;99.90;;;;;;5026999;28;20188;-80
2020/12/29 10:34:15;;;;;;;7.70;4.97;;;8.40;99.90;;;;;;5019297;28;20224;-81
2020/12/29 10:36:46;;;;;;;6.45;5.85;;;8.30;99.90;;;;;;5023501;28;20184;-82
2020/12/29 10:39:13;;;;;;;6.32;5.72;;;8.20;99.90;;;;;;5023337;28;20188;-79
2020/12/29 10:41:40;;;;;;;6.10;5.47;;;8.10;99.90;;;;;;5021393;28;20308;-79
2020/12/29 10:44:09;;;;;;;8.68;5.45;;;8.10;99.90;;;;;;5021597;28;20191;-82
2020/12/29 10:46:35;;;;;;;10.38;6.43;;;8.00;99.90;;;;;;5023938;28;20197;-79
2020/12/29 10:49:01;;;;;;;10.27;6.70;;;7.90;99.90;;;;;;5021349;28;20193;-79
2020/12/29 10:51:27;;;;;;;8.30;6.90;;;8.00;99.90;;;;;;5024208;28;20550;-80
2020/12/29 10:53:55;;;;;;;7.70;6.40;;;8.10;99.90;;;;;;5018673;28;20224;-83
2020/12/29 10:56:21;;;;;;;11.07;7.45;;;8.00;99.90;;;;;;5030138;28;20251;-79
2020/12/29 10:58:48;;;;;;;8.93;7.40;;;8.10;99.90;;;;;;5032164;28;20184;-79
2020/12/29 11:01:19;;;;;;;8.45;7.40;;;8.10;99.90;;;;;;5012921;28;20224;-79
2020/12/29 11:03:45;;;;;;;8.65;6.82;;;8.20;99.90;;;;;;5012923;28;20203;-79
2020/12/29 11:06:12;;;;;;;10.40;8.32;;;8.20;99.90;;;;;;5020743;28;20651;-80
2020/12/29 11:08:40;;;;;;;10.27;7.78;;;8.20;99.90;;;;;;5023626;28;20635;-80
2020/12/29 11:11:07;;;;;;;11.23;8.65;;;8.20;99.90;;;;;;5036042;28;20191;-79
2020/12/29 11:13:34;;;;;;;12.82;7.85;;;8.20;99.90;;;;;;5036173;28;20207;-79
2020/12/29 11:16:00;;;;;;;10.45;8.25;;;8.20;99.90;;;;;;5036189;28;20531;-83
2020/12/29 11:18:27;;;;;;;12.38;9.02;;;8.30;99.90;;;;;;5035957;28;20204;-78
2020/12/29 11:20:53;;;;;;;11.48;9.02;;;8.30;99.90;;;;;;5035684;28;20231;-80
2020/12/29 11:23:20;;;;;;;9.25;8.15;;;8.20;99.90;;;;;;5031601;28;20196;-79
2020/12/29 11:25:46;;;;;;;13.60;8.63;;;8.10;99.90;;;;;;5024136;28;20188;-80
2020/12/29 11:28:13;;;;;;;12.02;8.82;;;7.90;99.90;;;;;;5025315;28;20192;-79
2020/12/29 11:30:39;;;;;;;18.25;9.30;;;7.80;99.90;;;;;;5023472;28;20196;-79
2020/12/29 11:33:06;;;;;;;12.48;8.27;;;7.70;99.90;;;;;;5024166;28;20219;-80
2020/12/29 11:35:32;;;;;;;12.48;9.13;;;7.80;99.90;;;;;;5028268;28;20268;-80
2020/12/29 11:37:58;;;;;;;10.30;9.20;;;7.80;99.90;;;;;;5026437;28;20246;-82
2020/12/29 11:40:24;;;;;;;11.38;8.85;;;7.90;99.90;;;;;;5032386;28;20227;-80
2020/12/29 11:42:50;;;;;;;13.27;9.55;;;7.80;99.90;;;;;;5024329;28;20246;-81
2020/12/29 11:45:17;;;;;;;10.88;9.13;;;7.90;99.90;;;;;;5023191;28;20248;-79
2020/12/29 11:47:45;;;;;;;10.68;9.57;;;7.90;99.90;;;;;;5024728;28;20188;-79
2020/12/29 11:50:11;;;;;;;12.82;9.35;;;7.80;99.90;;;;;;5022230;28;20258;-80
2020/12/29 11:52:37;;;;;;;13.30;10.05;;;7.80;99.90;;;;;;5035471;28;20219;-80
2020/12/29 11:55:03;;;;;;;13.65;10.27;;;7.60;99.90;;;;;;5035114;28;20221;-80
2020/12/29 11:57:30;;;;;;;12.48;10.40;;;7.60;99.90;;;;;;5035164;28;20195;-80
2020/12/29 11:59:56;;;;;;;10.95;9.52;;;7.60;99.90;;;;;;5035266;28;20998;-80
2020/12/29 12:02:23;;;;;;;13.15;9.10;;;7.60;99.90;;;;;;5035160;28;20246;-80
2020/12/29 12:04:49;;;;;;;13.55;9.40;;;7.70;99.90;;;;;;5035233;28;20196;-80
2020/12/29 12:07:15;;;;;;;12.32;9.95;;;7.70;99.90;;;;;;5035188;28;20245;-80
2020/12/29 12:09:41;;;;;;;12.63;10.43;;;7.70;99.90;;;;;;5035104;28;20717;-80
2020/12/29 12:12:08;;;;;;;15.65;10.32;;;7.80;99.90;;;;;;5035248;28;20196;-81
2020/12/29 12:14:34;;;;;;;17.42;11.38;;;7.80;99.90;;;;;;5034985;28;20662;-80
2020/12/29 12:17:00;;;;;;;13.05;9.73;;;7.80;99.90;;;;;;5034401;28;20200;-80
2020/12/29 12:19:27;;;;;;;15.73;10.68;;;7.80;99.90;;;;;;5034778;28;20200;-82
2020/12/29 12:21:53;;;;;;;18.45;12.30;;;7.90;99.90;;;;;;5034663;28;20227;-80
2020/12/29 12:24:19;;;;;;;18.35;10.50;;;8.00;99.90;;;;;;5034794;28;20208;-80
2020/12/29 12:26:46;;;;;;;15.32;10.80;;;8.00;99.90;;;;;;5034720;28;20196;-80
2020/12/29 12:29:12;;;;;;;18.77;11.50;;;8.10;99.90;;;;;;5034647;28;20196;-80
2020/12/29 12:31:38;;;;;;;21.05;12.57;;;8.20;99.90;;;;;;5034782;28;20227;-80
2020/12/29 12:34:04;;;;;;;17.90;12.15;;;8.20;99.90;;;;;;5034611;28;20230;-80
2020/12/29 12:36:31;;;;;;;16.90;12.60;;;8.20;99.90;;;;;;5034783;28;20207;-80
2020/12/29 12:38:58;;;;;;;18.15;12.60;;;8.30;99.90;;;;;;5034016;28;20199;-80
2020/12/29 12:41:24;;;;;;;18.38;12.25;;;8.30;99.90;;;;;;5034255;28;20235;-80
2020/12/29 12:43:50;;;;;;;17.50;13.13;;;8.20;99.90;;;;;;5034568;28;20222;-80
2020/12/29 12:46:16;;;;;;;20.83;13.82;;;8.20;99.90;;;;;;5033836;28;20196;-79
2020/12/29 12:48:42;;;;;;;19.08;13.93;;;8.20;99.90;;;;;;5033766;28;20549;-80
2020/12/29 12:51:09;;;;;;;24.70;14.70;;;8.20;99.90;;;;;;5034290;28;20582;-80
2020/12/29 12:53:36;;;;;;;22.55;13.57;;;8.20;99.90;;;;;;5034281;28;20200;-81
2020/12/29 12:56:02;;;;;;;21.98;15.93;;;8.20;99.90;;;;;;5034212;28;20246;-80
2020/12/29 12:58:28;;;;;;;17.80;13.50;;;8.20;99.90;;;;;;5034086;28;20199;-80